createdAt,value
2019-02-17T00:00:56.842Z,1.90
2019-02-17T00:03:25.608Z,1.90
2019-02-17T00:05:54.428Z,1.90
2019-02-17T00:08:23.368Z,1.90
2019-02-17T00:10:52.105Z,1.90
2019-02-17T00:13:20.869Z,1.90
2019-02-17T00:15:49.612Z,1.80
2019-02-17T00:18:18.359Z,1.80
2019-02-17T00:20:47.116Z,1.70
2019-02-17T00:23:15.883Z,1.80
2019-02-17T00:25:44.646Z,1.90
2019-02-17T00:28:13.404Z,1.90
2019-02-17T00:30:42.568Z,1.80
2019-02-17T00:33:11.318Z,1.70
2019-02-17T00:35:40.070Z,1.60
2019-02-17T00:38:08.829Z,1.60
2019-02-17T00:40:37.543Z,1.60
2019-02-17T00:43:06.448Z,1.60
2019-02-17T00:45:35.200Z,1.70
2019-02-17T00:48:04.034Z,1.60
2019-02-17T00:50:37.329Z,1.50
2019-02-17T00:53:06.152Z,1.50
2019-02-17T00:55:34.992Z,1.40
2019-02-17T00:58:03.822Z,1.40
2019-02-17T01:00:34.378Z,1.40
2019-02-17T01:03:03.212Z,1.30
2019-02-17T01:05:31.966Z,1.30
2019-02-17T01:08:00.720Z,1.20
2019-02-17T01:10:29.477Z,1.20
2019-02-17T01:12:58.233Z,1.20
2019-02-17T01:15:27.086Z,1.20
2019-02-17T01:17:55.793Z,1.10
2019-02-17T01:20:24.560Z,1.20
2019-02-17T01:22:53.290Z,1.10
2019-02-17T01:25:23.392Z,1.20
2019-02-17T01:27:53.954Z,1.20
2019-02-17T01:30:22.715Z,1.20
2019-02-17T01:32:51.580Z,1.10
2019-02-17T01:35:20.402Z,1.10
2019-02-17T01:37:49.155Z,1.10
2019-02-17T01:40:18.060Z,1.10
2019-02-17T01:42:46.877Z,1.00
2019-02-17T01:45:15.640Z,1.10
2019-02-17T01:47:45.309Z,1.10
2019-02-17T01:50:14.140Z,1.10
2019-02-17T01:52:42.870Z,1.00
2019-02-17T01:55:11.704Z,1.00
2019-02-17T01:57:40.461Z,0.90
2019-02-17T02:00:11.372Z,0.90
2019-02-17T02:02:40.104Z,0.80
2019-02-17T02:05:09.238Z,0.80
2019-02-17T02:07:38.226Z,0.90
2019-02-17T02:10:07.668Z,0.90
2019-02-17T02:12:36.567Z,0.80
2019-02-17T02:15:06.728Z,0.80
2019-02-17T02:17:35.481Z,0.90
2019-02-17T02:20:04.965Z,0.90
2019-02-17T02:22:33.703Z,0.90
2019-02-17T02:25:02.473Z,0.80
2019-02-17T02:27:31.219Z,0.80
2019-02-17T02:30:00.061Z,0.70
2019-02-17T02:32:28.786Z,0.80
2019-02-17T02:34:57.529Z,0.80
2019-02-17T02:37:26.303Z,0.80
2019-02-17T02:39:55.049Z,0.80
2019-02-17T02:42:23.794Z,0.70
2019-02-17T02:44:52.533Z,0.70
2019-02-17T02:47:21.291Z,0.70
2019-02-17T02:49:50.029Z,0.70
2019-02-17T02:52:18.788Z,0.80
2019-02-17T02:54:47.530Z,0.80
2019-02-17T02:57:16.306Z,0.70
2019-02-17T02:59:52.164Z,0.60
2019-02-17T03:02:15.517Z,0.70
2019-02-17T03:04:44.265Z,0.70
2019-02-17T03:07:16.200Z,0.60
2019-02-17T03:09:45.300Z,0.70
2019-02-17T03:12:14.057Z,0.80
2019-02-17T03:14:42.794Z,0.80
2019-02-17T03:17:11.629Z,0.70
2019-02-17T03:19:40.392Z,0.70
2019-02-17T03:22:09.153Z,0.70
2019-02-17T03:24:37.998Z,0.60
2019-02-17T03:27:06.742Z,0.60
2019-02-17T03:29:35.594Z,0.50
2019-02-17T03:32:04.341Z,0.40
2019-02-17T03:34:33.089Z,0.50
2019-02-17T03:37:01.838Z,0.50
2019-02-17T03:39:30.584Z,0.50
2019-02-17T03:41:59.505Z,0.50
2019-02-17T03:44:28.257Z,0.40
2019-02-17T03:46:57.345Z,0.30
2019-02-17T03:49:26.176Z,0.30
2019-02-17T03:51:54.903Z,0.30
2019-02-17T03:54:24.229Z,0.20
2019-02-17T03:56:53.043Z,0.20
2019-02-17T03:59:21.800Z,0.20
2019-02-17T04:01:50.606Z,0.10
2019-02-17T04:04:19.372Z,0.10
2019-02-17T04:06:48.108Z,0.10
2019-02-17T04:09:16.979Z,0.10
2019-02-17T04:11:45.998Z,0.00
2019-02-17T04:14:14.749Z,0.00
2019-02-17T04:16:43.496Z,0.00
2019-02-17T04:19:12.257Z,0.10
2019-02-17T04:21:41.007Z,0.10
2019-02-17T04:24:09.765Z,0.10
2019-02-17T04:26:38.524Z,0.00
2019-02-17T04:29:07.327Z,0.00
2019-02-17T04:31:36.041Z,0.00
2019-02-17T04:34:04.866Z,0.00
2019-02-17T04:36:33.617Z,0.00
2019-02-17T04:39:04.857Z,0.00
2019-02-17T04:41:33.610Z,0.00
2019-02-17T04:44:02.372Z,-0.10
2019-02-17T04:46:31.111Z,-0.20
2019-02-17T04:49:01.413Z,-0.10
2019-02-17T04:51:30.237Z,-0.10
2019-02-17T04:53:59.834Z,-0.10
2019-02-17T04:56:28.587Z,-0.10
2019-02-17T04:58:57.332Z,-0.10
2019-02-17T05:01:26.164Z,-0.10
2019-02-17T05:03:54.918Z,-0.10
2019-02-17T05:06:23.678Z,-0.10
2019-02-17T05:08:52.496Z,-0.20
2019-02-17T05:11:22.315Z,-0.20
2019-02-17T05:13:51.049Z,-0.20
2019-02-17T05:16:19.820Z,-0.10
2019-02-17T05:18:48.559Z,0.00
2019-02-17T05:21:17.321Z,-0.10
2019-02-17T05:23:46.251Z,-0.10
2019-02-17T05:26:15.088Z,-0.20
2019-02-17T05:28:43.865Z,-0.30
2019-02-17T05:31:12.623Z,-0.30
2019-02-17T05:33:41.364Z,-0.30
2019-02-17T05:36:10.192Z,-0.30
2019-02-17T05:38:39.440Z,-0.30
2019-02-17T05:41:08.229Z,-0.20
2019-02-17T05:43:36.982Z,-0.20
2019-02-17T05:46:05.762Z,-0.30
2019-02-17T05:48:34.508Z,-0.30
2019-02-17T05:51:03.278Z,-0.30
2019-02-17T05:53:32.103Z,-0.10
2019-02-17T05:56:00.964Z,-0.20
2019-02-17T05:58:29.732Z,-0.20
2019-02-17T06:01:03.721Z,-0.20
2019-02-17T06:03:29.789Z,-0.30
2019-02-17T06:05:58.575Z,-0.20
2019-02-17T06:08:27.496Z,-0.20
2019-02-17T06:10:56.509Z,-0.20
2019-02-17T06:13:25.250Z,-0.20
2019-02-17T06:15:54.006Z,-0.20
2019-02-17T06:18:22.744Z,-0.20
2019-02-17T06:20:51.509Z,-0.30
2019-02-17T06:23:20.259Z,-0.20
2019-02-17T06:25:49.017Z,-0.20
2019-02-17T06:28:18.462Z,-0.20
2019-02-17T06:30:47.224Z,-0.20
2019-02-17T06:33:15.961Z,-0.20
2019-02-17T06:35:44.730Z,-0.20
2019-02-17T06:38:13.544Z,-0.10
2019-02-17T06:40:42.793Z,-0.20
2019-02-17T06:43:11.552Z,-0.20
2019-02-17T06:45:40.325Z,-0.20
2019-02-17T06:48:09.080Z,-0.20
2019-02-17T06:50:38.272Z,-0.20
2019-02-17T06:53:07.036Z,-0.10
2019-02-17T06:55:46.452Z,0.00
2019-02-17T06:58:15.198Z,0.00
2019-02-17T07:00:51.982Z,0.10
2019-02-17T07:03:20.797Z,0.20
2019-02-17T07:06:04.532Z,0.40
2019-02-17T07:08:33.294Z,0.50
2019-02-17T07:11:02.020Z,0.60
2019-02-17T07:13:30.851Z,0.60
2019-02-17T07:15:59.586Z,0.70
2019-02-17T07:18:28.342Z,0.80
2019-02-17T07:20:57.142Z,1.00
2019-02-17T07:23:25.891Z,1.10
2019-02-17T07:25:54.630Z,1.20
2019-02-17T07:28:23.396Z,1.30
2019-02-17T07:30:52.135Z,1.40
2019-02-17T07:33:21.013Z,1.50
2019-02-17T07:35:49.780Z,1.70
2019-02-17T07:38:18.552Z,1.80
2019-02-17T07:40:47.332Z,1.90
2019-02-17T07:43:16.084Z,1.90
2019-02-17T07:45:47.764Z,2.00
2019-02-17T07:48:16.517Z,2.10
2019-02-17T07:50:45.425Z,2.20
2019-02-17T07:53:14.173Z,2.20
2019-02-17T07:55:45.192Z,2.30
2019-02-17T07:58:13.945Z,2.40
2019-02-17T08:00:43.242Z,2.40
2019-02-17T08:03:12.974Z,2.20
2019-02-17T08:05:41.721Z,2.30
2019-02-17T08:08:10.479Z,2.30
2019-02-17T08:10:40.832Z,2.60
2019-02-17T08:13:09.582Z,2.60
2019-02-17T08:15:38.327Z,2.80
2019-02-17T08:18:07.100Z,2.90
2019-02-17T08:20:36.546Z,2.90
2019-02-17T08:23:05.681Z,3.00
2019-02-17T08:25:34.429Z,3.10
2019-02-17T08:28:03.184Z,3.00
2019-02-17T08:30:31.935Z,2.90
2019-02-17T08:33:00.680Z,3.10
2019-02-17T08:35:29.437Z,3.50
2019-02-17T08:38:03.398Z,3.50
2019-02-17T08:40:31.769Z,3.70
2019-02-17T08:43:00.512Z,3.80
2019-02-17T08:45:29.258Z,4.10
2019-02-17T08:47:58.163Z,4.30
2019-02-17T08:50:26.912Z,4.30
2019-02-17T08:52:55.849Z,4.50
2019-02-17T08:55:24.884Z,4.90
2019-02-17T08:57:53.936Z,5.50
2019-02-17T09:00:23.052Z,5.30
2019-02-17T09:02:52.323Z,5.10
2019-02-17T09:05:21.434Z,5.90
2019-02-17T09:07:50.518Z,6.10
2019-02-17T09:10:19.618Z,5.80
2019-02-17T09:12:49.806Z,6.40
2019-02-17T09:15:18.904Z,7.00
2019-02-17T09:17:48.025Z,7.40
2019-02-17T09:20:18.433Z,6.70
2019-02-17T09:22:47.629Z,7.10
2019-02-17T09:25:16.900Z,7.10
2019-02-17T09:27:46.210Z,7.00
2019-02-17T09:30:18.253Z,8.10
2019-02-17T09:32:47.062Z,8.20
2019-02-17T09:35:15.914Z,8.30
2019-02-17T09:37:44.706Z,8.90
2019-02-17T09:40:14.158Z,9.20
2019-02-17T09:42:42.936Z,9.60
2019-02-17T09:45:13.032Z,10.00
2019-02-17T09:47:43.594Z,10.10
2019-02-17T09:50:12.940Z,10.00
2019-02-17T09:52:41.961Z,9.90
2019-02-17T09:55:10.770Z,10.40
2019-02-17T09:57:39.880Z,11.60
2019-02-17T10:00:10.558Z,11.40
2019-02-17T10:02:39.475Z,10.90
2019-02-17T10:05:08.468Z,10.70
2019-02-17T10:07:37.312Z,11.30
2019-02-17T10:10:07.680Z,11.20
2019-02-17T10:12:36.461Z,11.70
2019-02-17T10:15:05.824Z,12.20
2019-02-17T10:17:34.570Z,12.20
2019-02-17T10:20:03.545Z,12.40
2019-02-17T10:22:32.307Z,12.30
2019-02-17T10:25:01.088Z,12.60
2019-02-17T10:27:29.858Z,12.00
2019-02-17T10:29:58.680Z,12.20
2019-02-17T10:32:36.462Z,12.60
2019-02-17T10:34:58.830Z,12.90
2019-02-17T10:37:27.597Z,13.00
2019-02-17T10:39:56.330Z,13.00
2019-02-17T10:42:25.209Z,13.50
2019-02-17T10:44:53.956Z,12.80
2019-02-17T10:47:22.704Z,13.10
2019-02-17T10:49:51.481Z,13.60
2019-02-17T10:52:20.250Z,13.40
2019-02-17T10:54:49.005Z,13.70
2019-02-17T10:57:17.745Z,13.80
2019-02-17T10:59:46.986Z,14.20
2019-02-17T11:02:15.962Z,14.00
2019-02-17T11:04:44.733Z,14.30
2019-02-17T11:07:13.494Z,14.70
2019-02-17T11:09:42.264Z,14.50
2019-02-17T11:12:15.891Z,13.90
2019-02-17T11:14:44.410Z,14.00
2019-02-17T11:17:13.149Z,14.20
2019-02-17T11:19:41.921Z,14.00
2019-02-17T11:22:12.318Z,14.50
2019-02-17T11:24:41.089Z,14.70
2019-02-17T11:27:09.853Z,14.30
2019-02-17T11:29:38.620Z,13.70
2019-02-17T11:32:07.453Z,13.20
2019-02-17T11:34:36.383Z,13.00
2019-02-17T11:37:05.316Z,12.90
2019-02-17T11:39:34.086Z,13.50
2019-02-17T11:42:03.252Z,13.80
2019-02-17T11:44:32.115Z,14.10
2019-02-17T11:47:01.197Z,14.80
2019-02-17T11:49:30.384Z,14.50
2019-02-17T11:51:59.208Z,14.60
2019-02-17T11:54:27.974Z,15.20
2019-02-17T11:56:56.742Z,14.90
2019-02-17T11:59:25.519Z,15.40
2019-02-17T12:01:54.260Z,15.40
2019-02-17T12:04:23.104Z,15.70
2019-02-17T12:06:51.838Z,15.70
2019-02-17T12:09:20.595Z,14.80
2019-02-17T12:11:49.424Z,15.40
2019-02-17T12:14:18.171Z,16.10
2019-02-17T12:16:47.016Z,16.50
2019-02-17T12:19:15.836Z,15.60
2019-02-17T12:22:02.700Z,17.00
2019-02-17T12:24:35.688Z,17.10
2019-02-17T12:27:11.976Z,17.30
2019-02-17T12:29:43.625Z,16.90
2019-02-17T12:32:12.509Z,17.40
2019-02-17T12:34:41.847Z,16.80
2019-02-17T12:37:12.827Z,16.80
2019-02-17T12:39:41.627Z,17.50
2019-02-17T12:42:10.625Z,18.20
2019-02-17T12:44:39.579Z,18.00
2019-02-17T12:47:08.438Z,18.20
2019-02-17T12:49:37.168Z,18.50
2019-02-17T12:52:05.932Z,17.90
2019-02-17T12:54:34.694Z,17.70
2019-02-17T12:57:03.457Z,18.40
2019-02-17T12:59:32.406Z,18.80
2019-02-17T13:02:01.153Z,19.10
2019-02-17T13:04:30.680Z,18.80
2019-02-17T13:06:59.442Z,18.50
2019-02-17T13:09:28.210Z,18.50
2019-02-17T13:11:56.983Z,18.50
2019-02-17T13:14:25.774Z,18.10
2019-02-17T13:16:54.576Z,18.20
2019-02-17T13:19:23.340Z,19.10
2019-02-17T13:21:52.105Z,20.20
2019-02-17T13:24:21.133Z,20.70
2019-02-17T13:26:51.221Z,20.00
2019-02-17T13:29:20.874Z,19.60
2019-02-17T13:31:50.010Z,19.40
2019-02-17T13:34:18.788Z,19.60
2019-02-17T13:36:47.565Z,20.20
2019-02-17T13:39:16.294Z,19.50
2019-02-17T13:41:45.141Z,19.80
2019-02-17T13:44:13.992Z,19.50
2019-02-17T13:46:42.756Z,19.10
2019-02-17T13:49:11.576Z,18.70
2019-02-17T13:51:40.492Z,18.00
2019-02-17T13:54:09.491Z,17.90
2019-02-17T13:56:38.275Z,18.20
2019-02-17T13:59:07.097Z,18.50
2019-02-17T14:01:35.877Z,18.30
2019-02-17T14:04:04.643Z,18.70
2019-02-17T14:06:33.407Z,19.20
2019-02-17T14:09:02.296Z,18.70
2019-02-17T14:11:31.044Z,19.20
2019-02-17T14:13:59.800Z,19.40
2019-02-17T14:16:29.361Z,19.40
2019-02-17T14:18:58.108Z,19.70
2019-02-17T14:21:26.876Z,20.00
2019-02-17T14:23:55.636Z,19.40
2019-02-17T14:26:24.417Z,18.90
2019-02-17T14:28:53.180Z,18.90
2019-02-17T14:31:21.929Z,18.90
2019-02-17T14:33:58.393Z,19.40
2019-02-17T14:36:21.209Z,19.20
2019-02-17T14:38:49.964Z,18.90
2019-02-17T14:41:18.712Z,19.00
2019-02-17T14:43:47.482Z,19.40
2019-02-17T14:46:16.322Z,19.60
2019-02-17T14:48:45.082Z,19.40
2019-02-17T14:51:13.820Z,19.80
2019-02-17T14:53:42.576Z,19.60
2019-02-17T14:56:11.328Z,19.60
2019-02-17T14:58:40.085Z,18.80
2019-02-17T15:01:08.832Z,18.20
2019-02-17T15:03:37.608Z,18.20
2019-02-17T15:06:06.394Z,18.00
2019-02-17T15:08:35.167Z,17.30
2019-02-17T15:11:04.073Z,17.30
2019-02-17T15:13:32.822Z,17.00
2019-02-17T15:16:01.569Z,16.90
2019-02-17T15:18:30.341Z,16.50
2019-02-17T15:20:59.101Z,15.70
2019-02-17T15:23:27.856Z,15.10
2019-02-17T15:25:56.596Z,14.60
2019-02-17T15:28:25.358Z,14.40
2019-02-17T15:30:54.123Z,14.30
2019-02-17T15:33:22.952Z,14.30
2019-02-17T15:35:51.734Z,14.40
2019-02-17T15:38:20.556Z,14.10
2019-02-17T15:40:49.405Z,13.80
2019-02-17T15:43:18.153Z,13.70
2019-02-17T15:45:46.920Z,13.80
2019-02-17T15:48:15.661Z,13.70
2019-02-17T15:50:44.429Z,13.70
2019-02-17T15:53:14.057Z,13.60
2019-02-17T15:55:42.833Z,13.30
2019-02-17T15:58:11.576Z,13.40
2019-02-17T16:00:40.771Z,13.40
2019-02-17T16:03:09.620Z,13.40
2019-02-17T16:05:38.352Z,13.30
2019-02-17T16:08:07.120Z,13.30
2019-02-17T16:10:35.876Z,13.10
2019-02-17T16:13:05.468Z,12.90
2019-02-17T16:15:34.376Z,12.80
2019-02-17T16:18:03.165Z,12.70
2019-02-17T16:20:32.002Z,12.50
2019-02-17T16:23:00.837Z,12.30
2019-02-17T16:25:29.584Z,12.40
2019-02-17T16:27:58.441Z,12.30
2019-02-17T16:30:27.235Z,12.20
2019-02-17T16:32:55.978Z,12.20
2019-02-17T16:35:24.890Z,12.10
2019-02-17T16:37:53.626Z,11.90
2019-02-17T16:40:22.448Z,11.80
2019-02-17T16:42:51.263Z,11.70
2019-02-17T16:45:20.382Z,11.60
2019-02-17T16:47:49.139Z,11.40
2019-02-17T16:50:19.039Z,11.30
2019-02-17T16:52:48.041Z,11.10
2019-02-17T16:55:17.277Z,10.90
2019-02-17T16:57:46.194Z,10.60
2019-02-17T17:00:18.106Z,10.40
2019-02-17T17:02:47.028Z,10.20
2019-02-17T17:05:15.771Z,10.00
2019-02-17T18:41:03.390Z,6.50
2019-02-17T18:43:32.192Z,6.50
2019-02-17T18:46:00.931Z,6.30
2019-02-17T18:48:29.687Z,6.30
2019-02-17T18:50:59.494Z,6.30
2019-02-17T18:58:37.110Z,6.00
2019-02-17T19:01:05.954Z,6.10
2019-02-17T19:03:34.702Z,6.20
2019-02-17T19:06:03.584Z,6.00
2019-02-17T19:08:32.351Z,5.90
2019-02-17T19:11:01.129Z,5.80
2019-02-17T19:13:30.707Z,5.80
2019-02-17T19:15:59.447Z,5.70
2019-02-17T19:18:28.281Z,5.80
2019-02-17T19:20:57.016Z,5.70
2019-02-17T19:23:25.793Z,5.60
2019-02-17T19:25:54.543Z,5.60
2019-02-17T19:28:23.358Z,5.40
2019-02-17T19:30:52.165Z,5.30
2019-02-17T19:33:22.020Z,5.20
2019-02-17T19:35:50.758Z,5.30
2019-02-17T19:38:19.520Z,5.20
2019-02-17T19:40:48.381Z,5.20
2019-02-17T19:43:17.180Z,5.10
2019-02-17T19:45:45.928Z,5.00
2019-02-17T19:48:14.685Z,5.10
2019-02-17T19:50:43.452Z,5.00
2019-02-17T19:53:12.192Z,4.90
2019-02-17T19:55:41.097Z,4.80
2019-02-17T19:58:10.007Z,4.70
2019-02-17T20:00:38.850Z,4.70
2019-02-17T20:03:33.268Z,4.60
2019-02-17T20:06:03.240Z,4.70
2019-02-17T20:08:31.991Z,4.60
2019-02-17T20:11:00.838Z,4.60
2019-02-17T20:13:29.584Z,4.50
2019-02-17T20:15:58.358Z,4.60
2019-02-17T20:18:27.139Z,4.40
2019-02-17T20:20:55.907Z,4.50
2019-02-17T20:23:24.675Z,4.30
2019-02-17T20:25:53.832Z,4.20
2019-02-17T20:28:35.724Z,4.20
2019-02-17T20:30:53.096Z,4.20
2019-02-17T20:33:21.863Z,4.10
2019-02-17T20:35:50.748Z,4.00
2019-02-17T20:38:19.701Z,3.90
2019-02-17T20:40:48.504Z,3.90
2019-02-17T20:43:17.289Z,3.90
2019-02-17T20:45:46.151Z,3.80
2019-02-17T20:48:14.936Z,3.70
2019-02-17T20:50:43.702Z,3.60
2019-02-17T20:53:12.440Z,3.80
2019-02-17T20:55:47.516Z,3.80
2019-02-17T20:58:18.008Z,3.80
2019-02-17T21:00:48.352Z,3.70
2019-02-17T21:03:17.074Z,3.50
2019-02-17T21:05:45.817Z,3.50
2019-02-17T21:08:14.624Z,3.50
2019-02-17T21:10:43.520Z,3.50
2019-02-17T21:13:14.025Z,3.40
2019-02-17T21:15:46.484Z,3.40
2019-02-17T21:18:15.352Z,3.40
2019-02-17T21:20:44.219Z,3.40
2019-02-17T21:23:12.981Z,3.30
2019-02-17T21:25:41.730Z,3.40
2019-02-17T21:28:11.388Z,3.30
2019-02-17T21:30:40.782Z,3.30
2019-02-17T21:33:09.925Z,3.30
2019-02-17T21:35:38.820Z,3.20
2019-02-17T21:38:09.903Z,3.20
2019-02-17T21:40:39.070Z,3.20
2019-02-17T21:43:07.891Z,3.20
2019-02-17T21:45:36.717Z,3.30
2019-02-17T21:48:07.207Z,3.20
2019-02-17T21:50:37.122Z,3.10
2019-02-17T21:53:06.205Z,3.00
2019-02-17T21:55:35.118Z,2.90
2019-02-17T21:58:04.120Z,2.90
2019-02-17T22:00:36.232Z,2.90
2019-02-17T22:03:05.648Z,2.90
2019-02-17T22:05:35.075Z,2.80
2019-02-17T22:08:07.060Z,2.70
2019-02-17T22:10:41.874Z,2.60
2019-02-17T22:13:11.597Z,2.50
2019-02-17T22:15:42.861Z,2.50
2019-02-17T22:18:12.317Z,2.50
2019-02-17T22:20:42.481Z,2.40
2019-02-17T22:23:11.418Z,2.40
2019-02-17T22:25:47.960Z,2.50
2019-02-17T22:28:16.792Z,2.40
2019-02-17T22:30:52.532Z,2.40
2019-02-17T22:33:28.544Z,2.30
2019-02-17T22:36:03.283Z,2.30
2019-02-17T22:38:33.030Z,2.20
2019-02-17T22:41:01.919Z,2.20
2019-02-17T22:43:31.461Z,2.20
2019-02-17T22:46:00.838Z,2.20
2019-02-17T22:48:30.072Z,2.20
2019-02-17T22:50:59.137Z,2.10
2019-02-17T22:53:27.961Z,2.00
2019-02-17T22:55:56.780Z,2.00
2019-02-17T22:58:25.535Z,1.90
2019-02-17T23:01:01.870Z,1.90
2019-02-17T23:03:31.550Z,1.90
2019-02-17T23:06:00.369Z,1.90
2019-02-17T23:08:29.286Z,1.90
2019-02-17T23:10:58.033Z,1.90
2019-02-17T23:13:27.061Z,1.90
2019-02-17T23:15:55.820Z,1.90
2019-02-17T23:18:24.572Z,1.80
2019-02-17T23:20:53.308Z,1.70
2019-02-17T23:23:22.060Z,1.60
2019-02-17T23:25:50.796Z,1.70
2019-02-17T23:28:19.561Z,1.70
2019-02-17T23:30:48.377Z,1.70
2019-02-17T23:33:17.124Z,1.90
2019-02-17T23:35:45.858Z,2.00
2019-02-17T23:38:14.665Z,1.80
2019-02-17T23:40:43.432Z,1.70
2019-02-17T23:43:12.246Z,1.70
2019-02-17T23:45:40.978Z,1.80
2019-02-17T23:48:09.886Z,1.70
2019-02-17T23:50:38.620Z,1.70
2019-02-17T23:53:07.455Z,1.70
2019-02-17T23:55:36.200Z,1.60
2019-02-17T23:58:06.866Z,1.50
